Aviation Digital Data Service (ADDS)

Output produced by METARs form (0936 UTC 29 November 2014)
found at http://aviationweather.gov/adds/metars/
 
METAR text: KBFM 290853Z AUTO 32004KT 7SM CLR 03/03 A3027 RMK AO2 SLP249 T00330028 56005
Conditions at: KBFM (MOBILE/BROOKLEY , AL, US) observed 0853 UTC 29 November 2014
Temperature: 3.3°C (38°F)
Dewpoint: 2.8°C (37°F) [RH = 97%]
Pressure (altimeter): 30.27 inches Hg (1025.1 mb)
[Sea-level pressure: 1024.9 mb]
Winds: from the NW (320 degrees) at 5 MPH (4 knots; 2.1 m/s)
Visibility: 7 miles (11 km)
Ceiling: at least 12,000 feet AGL
Clouds: sky clear below 12,000 feet AGL
Weather: automated observation with no human augmentation;
there may or may not be significant weather present at this time